sensor_id;sensor_type;location;lat;lon;timestamp;P1;durP1;ratioP1;P2;durP2;ratioP2
27632;SDS011;15046;50.930;13.334;2022-09-01T00:01:19;10.65;;;6.05;;
27632;SDS011;15046;50.930;13.334;2022-09-01T00:03:49;10.07;;;6.63;;
27632;SDS011;15046;50.930;13.334;2022-09-01T00:06:20;9.45;;;6.35;;
27632;SDS011;15046;50.930;13.334;2022-09-01T00:08:48;10.23;;;6.70;;
27632;SDS011;15046;50.930;13.334;2022-09-01T00:11:16;11.73;;;7.32;;
27632;SDS011;15046;50.930;13.334;2022-09-01T00:13:43;11.35;;;6.65;;
27632;SDS011;15046;50.930;13.334;2022-09-01T00:16:09;11.30;;;7.30;;
27632;SDS011;15046;50.930;13.334;2022-09-01T00:18:38;10.32;;;6.70;;
27632;SDS011;15046;50.930;13.334;2022-09-01T00:21:07;9.70;;;6.88;;
27632;SDS011;15046;50.930;13.334;2022-09-01T00:23:33;12.88;;;7.60;;
27632;SDS011;15046;50.930;13.334;2022-09-01T00:25:59;9.75;;;6.68;;
27632;SDS011;15046;50.930;13.334;2022-09-01T00:28:25;11.43;;;7.13;;
27632;SDS011;15046;50.930;13.334;2022-09-01T00:30:51;11.05;;;6.38;;
27632;SDS011;15046;50.930;13.334;2022-09-01T00:33:18;10.32;;;7.13;;
27632;SDS011;15046;50.930;13.334;2022-09-01T00:35:44;13.57;;;6.85;;
27632;SDS011;15046;50.930;13.334;2022-09-01T00:38:10;11.57;;;7.72;;
27632;SDS011;15046;50.930;13.334;2022-09-01T00:40:36;11.30;;;7.45;;
27632;SDS011;15046;50.930;13.334;2022-09-01T00:44:04;12.32;;;7.57;;
27632;SDS011;15046;50.930;13.334;2022-09-01T00:46:07;9.65;;;7.15;;
27632;SDS011;15046;50.930;13.334;2022-09-01T00:48:36;10.85;;;7.38;;
27632;SDS011;15046;50.930;13.334;2022-09-01T00:51:02;11.13;;;7.78;;
27632;SDS011;15046;50.930;13.334;2022-09-01T00:53:29;11.73;;;7.22;;
27632;SDS011;15046;50.930;13.334;2022-09-01T00:55:56;10.25;;;6.65;;
27632;SDS011;15046;50.930;13.334;2022-09-01T01:11:51;10.93;;;7.38;;
27632;SDS011;15046;50.930;13.334;2022-09-01T01:14:17;12.70;;;8.13;;
27632;SDS011;15046;50.930;13.334;2022-09-01T01:16:47;11.50;;;6.95;;
27632;SDS011;15046;50.930;13.334;2022-09-01T01:28:06;13.82;;;7.95;;
27632;SDS011;15046;50.930;13.334;2022-09-01T01:30:42;13.40;;;7.45;;
27632;SDS011;15046;50.930;13.334;2022-09-01T01:33:13;9.68;;;6.78;;
27632;SDS011;15046;50.930;13.334;2022-09-01T01:35:39;10.68;;;7.13;;
27632;SDS011;15046;50.930;13.334;2022-09-01T01:38:05;11.80;;;7.40;;
27632;SDS011;15046;50.930;13.334;2022-09-01T01:40:32;12.75;;;7.65;;
27632;SDS011;15046;50.930;13.334;2022-09-01T01:42:58;12.82;;;7.80;;
27632;SDS011;15046;50.930;13.334;2022-09-01T01:45:25;12.77;;;7.47;;
27632;SDS011;15046;50.930;13.334;2022-09-01T01:47:52;15.52;;;7.90;;
27632;SDS011;15046;50.930;13.334;2022-09-01T01:50:19;9.60;;;6.65;;
27632;SDS011;15046;50.930;13.334;2022-09-01T01:52:47;9.27;;;6.55;;
27632;SDS011;15046;50.930;13.334;2022-09-01T01:55:14;9.48;;;6.55;;
27632;SDS011;15046;50.930;13.334;2022-09-01T01:57:43;9.07;;;6.35;;
27632;SDS011;15046;50.930;13.334;2022-09-01T02:00:18;13.60;;;8.43;;
27632;SDS011;15046;50.930;13.334;2022-09-01T02:02:47;16.88;;;7.90;;
27632;SDS011;15046;50.930;13.334;2022-09-01T02:05:18;10.90;;;6.78;;
27632;SDS011;15046;50.930;13.334;2022-09-01T02:07:56;9.48;;;6.88;;
27632;SDS011;15046;50.930;13.334;2022-09-01T02:10:30;9.25;;;6.82;;
27632;SDS011;15046;50.930;13.334;2022-09-01T02:12:59;11.13;;;6.65;;
27632;SDS011;15046;50.930;13.334;2022-09-01T02:15:35;9.40;;;7.28;;
27632;SDS011;15046;50.930;13.334;2022-09-01T02:18:10;10.13;;;6.57;;
27632;SDS011;15046;50.930;13.334;2022-09-01T02:20:43;9.15;;;6.28;;
27632;SDS011;15046;50.930;13.334;2022-09-01T02:23:11;10.88;;;6.97;;
27632;SDS011;15046;50.930;13.334;2022-09-01T02:25:41;11.40;;;6.78;;
27632;SDS011;15046;50.930;13.334;2022-09-01T02:28:09;10.15;;;6.47;;
27632;SDS011;15046;50.930;13.334;2022-09-01T02:30:43;10.73;;;6.50;;
27632;SDS011;15046;50.930;13.334;2022-09-01T02:33:12;8.35;;;5.60;;
27632;SDS011;15046;50.930;13.334;2022-09-01T02:35:43;12.48;;;5.70;;
27632;SDS011;15046;50.930;13.334;2022-09-01T02:38:10;9.48;;;5.97;;
27632;SDS011;15046;50.930;13.334;2022-09-01T02:40:38;11.18;;;6.82;;
27632;SDS011;15046;50.930;13.334;2022-09-01T02:43:09;10.93;;;6.72;;
27632;SDS011;15046;50.930;13.334;2022-09-01T02:45:36;8.18;;;6.00;;
27632;SDS011;15046;50.930;13.334;2022-09-01T02:48:02;10.00;;;6.57;;
27632;SDS011;15046;50.930;13.334;2022-09-01T02:50:37;10.18;;;6.78;;
27632;SDS011;15046;50.930;13.334;2022-09-01T02:53:05;11.50;;;7.72;;
27632;SDS011;15046;50.930;13.334;2022-09-01T02:55:36;9.63;;;6.88;;
27632;SDS011;15046;50.930;13.334;2022-09-01T02:58:03;14.13;;;7.22;;
27632;SDS011;15046;50.930;13.334;2022-09-01T03:00:33;10.70;;;7.70;;
27632;SDS011;15046;50.930;13.334;2022-09-01T03:05:30;8.70;;;6.82;;
27632;SDS011;15046;50.930;13.334;2022-09-01T03:08:02;8.25;;;6.20;;
27632;SDS011;15046;50.930;13.334;2022-09-01T03:10:38;9.77;;;7.25;;
27632;SDS011;15046;50.930;13.334;2022-09-01T03:15:34;10.48;;;7.18;;
27632;SDS011;15046;50.930;13.334;2022-09-01T03:18:02;11.60;;;6.90;;
27632;SDS011;15046;50.930;13.334;2022-09-01T03:20:29;8.82;;;7.05;;
27632;SDS011;15046;50.930;13.334;2022-09-01T03:22:59;12.55;;;7.78;;
27632;SDS011;15046;50.930;13.334;2022-09-01T03:25:25;15.20;;;7.18;;
27632;SDS011;15046;50.930;13.334;2022-09-01T03:27:54;9.93;;;7.20;;
27632;SDS011;15046;50.930;13.334;2022-09-01T03:30:23;11.03;;;7.77;;
27632;SDS011;15046;50.930;13.334;2022-09-01T03:32:49;11.05;;;7.65;;
27632;SDS011;15046;50.930;13.334;2022-09-01T03:35:15;10.52;;;7.20;;
27632;SDS011;15046;50.930;13.334;2022-09-01T03:37:41;14.35;;;7.80;;
27632;SDS011;15046;50.930;13.334;2022-09-01T03:40:08;9.48;;;6.70;;
27632;SDS011;15046;50.930;13.334;2022-09-01T03:42:36;10.93;;;7.35;;
27632;SDS011;15046;50.930;13.334;2022-09-01T03:45:02;9.32;;;6.90;;
27632;SDS011;15046;50.930;13.334;2022-09-01T03:47:38;11.55;;;7.55;;
27632;SDS011;15046;50.930;13.334;2022-09-01T03:50:16;11.27;;;7.57;;
27632;SDS011;15046;50.930;13.334;2022-09-01T03:52:47;9.95;;;7.10;;
27632;SDS011;15046;50.930;13.334;2022-09-01T03:55:26;9.38;;;6.25;;
27632;SDS011;15046;50.930;13.334;2022-09-01T03:57:59;12.95;;;7.63;;
27632;SDS011;15046;50.930;13.334;2022-09-01T04:00:42;13.63;;;9.27;;
27632;SDS011;15046;50.930;13.334;2022-09-01T04:03:10;25.02;;;15.93;;
27632;SDS011;15046;50.930;13.334;2022-09-01T04:05:41;26.50;;;16.15;;
27632;SDS011;15046;50.930;13.334;2022-09-01T04:08:10;23.65;;;14.98;;
27632;SDS011;15046;50.930;13.334;2022-09-01T04:10:48;19.98;;;13.43;;
27632;SDS011;15046;50.930;13.334;2022-09-01T04:13:22;19.60;;;10.73;;
27632;SDS011;15046;50.930;13.334;2022-09-01T04:16:01;19.58;;;11.75;;
27632;SDS011;15046;50.930;13.334;2022-09-01T04:19:02;22.13;;;13.38;;
27632;SDS011;15046;50.930;13.334;2022-09-01T04:21:40;27.23;;;16.30;;
27632;SDS011;15046;50.930;13.334;2022-09-01T04:24:07;31.05;;;21.30;;
27632;SDS011;15046;50.930;13.334;2022-09-01T04:26:34;30.60;;;19.45;;
27632;SDS011;15046;50.930;13.334;2022-09-01T04:29:02;29.15;;;18.38;;
27632;SDS011;15046;50.930;13.334;2022-09-01T04:31:28;23.40;;;15.27;;
27632;SDS011;15046;50.930;13.334;2022-09-01T04:33:55;17.25;;;10.80;;
27632;SDS011;15046;50.930;13.334;2022-09-01T04:36:25;14.45;;;10.23;;
27632;SDS011;15046;50.930;13.334;2022-09-01T04:38:59;17.35;;;11.80;;
27632;SDS011;15046;50.930;13.334;2022-09-01T04:41:28;13.73;;;10.85;;
27632;SDS011;15046;50.930;13.334;2022-09-01T04:43:57;15.52;;;10.70;;
27632;SDS011;15046;50.930;13.334;2022-09-01T04:46:29;15.60;;;11.82;;
27632;SDS011;15046;50.930;13.334;2022-09-01T04:49:03;17.67;;;11.85;;
27632;SDS011;15046;50.930;13.334;2022-09-01T04:51:34;15.90;;;11.45;;
27632;SDS011;15046;50.930;13.334;2022-09-01T04:54:09;18.20;;;11.63;;
27632;SDS011;15046;50.930;13.334;2022-09-01T04:56:38;17.63;;;11.70;;
27632;SDS011;15046;50.930;13.334;2022-09-01T04:59:06;18.00;;;11.05;;
27632;SDS011;15046;50.930;13.334;2022-09-01T05:01:34;17.75;;;12.15;;
27632;SDS011;15046;50.930;13.334;2022-09-01T05:04:10;15.68;;;10.57;;
27632;SDS011;15046;50.930;13.334;2022-09-01T05:06:41;17.45;;;10.80;;
27632;SDS011;15046;50.930;13.334;2022-09-01T05:09:10;16.25;;;9.85;;
27632;SDS011;15046;50.930;13.334;2022-09-01T05:11:37;13.93;;;9.88;;
27632;SDS011;15046;50.930;13.334;2022-09-01T05:14:04;13.95;;;9.43;;
27632;SDS011;15046;50.930;13.334;2022-09-01T05:16:31;13.55;;;10.40;;
27632;SDS011;15046;50.930;13.334;2022-09-01T05:18:58;14.70;;;9.75;;
27632;SDS011;15046;50.930;13.334;2022-09-01T05:21:25;13.52;;;9.88;;
27632;SDS011;15046;50.930;13.334;2022-09-01T05:23:53;18.77;;;10.00;;
27632;SDS011;15046;50.930;13.334;2022-09-01T05:26:22;16.48;;;9.93;;
27632;SDS011;15046;50.930;13.334;2022-09-01T05:28:52;14.93;;;11.30;;
27632;SDS011;15046;50.930;13.334;2022-09-01T05:31:23;14.93;;;9.95;;
27632;SDS011;15046;50.930;13.334;2022-09-01T05:33:52;16.27;;;10.85;;
27632;SDS011;15046;50.930;13.334;2022-09-01T05:36:20;15.85;;;11.10;;
27632;SDS011;15046;50.930;13.334;2022-09-01T05:38:47;17.05;;;10.82;;
27632;SDS011;15046;50.930;13.334;2022-09-01T05:41:16;18.25;;;11.57;;
27632;SDS011;15046;50.930;13.334;2022-09-01T05:43:45;16.25;;;11.15;;
27632;SDS011;15046;50.930;13.334;2022-09-01T05:46:14;19.38;;;11.13;;
27632;SDS011;15046;50.930;13.334;2022-09-01T05:48:45;22.08;;;11.90;;
27632;SDS011;15046;50.930;13.334;2022-09-01T05:51:14;19.50;;;13.23;;
27632;SDS011;15046;50.930;13.334;2022-09-01T05:53:44;15.38;;;10.70;;
27632;SDS011;15046;50.930;13.334;2022-09-01T05:56:11;20.50;;;12.73;;
27632;SDS011;15046;50.930;13.334;2022-09-01T05:58:39;18.85;;;12.25;;
27632;SDS011;15046;50.930;13.334;2022-09-01T06:01:07;19.55;;;13.27;;
27632;SDS011;15046;50.930;13.334;2022-09-01T06:03:35;20.92;;;13.80;;
27632;SDS011;15046;50.930;13.334;2022-09-01T06:06:04;21.50;;;12.55;;
27632;SDS011;15046;50.930;13.334;2022-09-01T06:08:33;16.75;;;13.07;;
27632;SDS011;15046;50.930;13.334;2022-09-01T06:11:00;21.30;;;12.88;;
27632;SDS011;15046;50.930;13.334;2022-09-01T06:13:28;22.08;;;14.73;;
27632;SDS011;15046;50.930;13.334;2022-09-01T06:15:54;24.17;;;15.38;;
27632;SDS011;15046;50.930;13.334;2022-09-01T06:18:23;23.67;;;15.75;;
27632;SDS011;15046;50.930;13.334;2022-09-01T06:20:48;22.17;;;14.85;;
27632;SDS011;15046;50.930;13.334;2022-09-01T06:23:15;22.38;;;15.43;;
27632;SDS011;15046;50.930;13.334;2022-09-01T06:25:42;21.73;;;16.27;;
27632;SDS011;15046;50.930;13.334;2022-09-01T06:28:11;29.33;;;17.52;;
27632;SDS011;15046;50.930;13.334;2022-09-01T06:30:39;23.42;;;14.77;;
27632;SDS011;15046;50.930;13.334;2022-09-01T06:33:07;23.20;;;15.73;;
27632;SDS011;15046;50.930;13.334;2022-09-01T06:35:34;21.90;;;16.65;;
27632;SDS011;15046;50.930;13.334;2022-09-01T06:38:01;14.88;;;11.13;;
27632;SDS011;15046;50.930;13.334;2022-09-01T06:40:29;18.05;;;13.65;;
27632;SDS011;15046;50.930;13.334;2022-09-01T06:42:56;19.48;;;13.63;;
27632;SDS011;15046;50.930;13.334;2022-09-01T06:45:24;16.10;;;13.95;;
27632;SDS011;15046;50.930;13.334;2022-09-01T06:47:51;16.45;;;11.60;;
27632;SDS011;15046;50.930;13.334;2022-09-01T06:50:20;11.68;;;9.40;;
27632;SDS011;15046;50.930;13.334;2022-09-01T06:52:48;17.70;;;11.27;;
27632;SDS011;15046;50.930;13.334;2022-09-01T06:55:25;21.90;;;11.20;;
27632;SDS011;15046;50.930;13.334;2022-09-01T06:57:56;11.35;;;9.20;;
27632;SDS011;15046;50.930;13.334;2022-09-01T07:00:22;11.65;;;8.93;;
27632;SDS011;15046;50.930;13.334;2022-09-01T07:02:54;12.77;;;8.65;;
27632;SDS011;15046;50.930;13.334;2022-09-01T07:05:21;12.02;;;8.73;;
27632;SDS011;15046;50.930;13.334;2022-09-01T07:07:49;12.27;;;8.48;;
27632;SDS011;15046;50.930;13.334;2022-09-01T07:10:18;9.15;;;7.88;;
27632;SDS011;15046;50.930;13.334;2022-09-01T07:12:53;17.33;;;7.93;;
27632;SDS011;15046;50.930;13.334;2022-09-01T07:15:24;10.68;;;7.97;;
27632;SDS011;15046;50.930;13.334;2022-09-01T07:17:52;14.63;;;7.88;;
27632;SDS011;15046;50.930;13.334;2022-09-01T07:20:21;10.13;;;6.45;;
27632;SDS011;15046;50.930;13.334;2022-09-01T07:22:50;10.65;;;8.15;;
27632;SDS011;15046;50.930;13.334;2022-09-01T07:25:18;10.80;;;8.07;;
27632;SDS011;15046;50.930;13.334;2022-09-01T07:27:45;13.32;;;9.45;;
27632;SDS011;15046;50.930;13.334;2022-09-01T07:30:17;15.50;;;9.23;;
27632;SDS011;15046;50.930;13.334;2022-09-01T07:32:45;12.52;;;8.63;;
27632;SDS011;15046;50.930;13.334;2022-09-01T07:35:13;16.48;;;7.97;;
27632;SDS011;15046;50.930;13.334;2022-09-01T07:37:42;12.23;;;7.70;;
27632;SDS011;15046;50.930;13.334;2022-09-01T07:40:12;16.00;;;11.40;;
27632;SDS011;15046;50.930;13.334;2022-09-01T07:42:43;14.88;;;10.15;;
27632;SDS011;15046;50.930;13.334;2022-09-01T07:45:12;11.27;;;9.43;;
27632;SDS011;15046;50.930;13.334;2022-09-01T07:47:41;14.80;;;8.93;;
27632;SDS011;15046;50.930;13.334;2022-09-01T07:50:09;9.57;;;7.82;;
27632;SDS011;15046;50.930;13.334;2022-09-01T07:52:39;13.30;;;8.55;;
27632;SDS011;15046;50.930;13.334;2022-09-01T07:57:36;13.18;;;8.65;;
27632;SDS011;15046;50.930;13.334;2022-09-01T08:00:04;10.85;;;8.07;;
27632;SDS011;15046;50.930;13.334;2022-09-01T08:02:30;13.25;;;8.82;;
27632;SDS011;15046;50.930;13.334;2022-09-01T08:04:58;16.02;;;9.52;;
27632;SDS011;15046;50.930;13.334;2022-09-01T08:07:24;11.25;;;9.02;;
27632;SDS011;15046;50.930;13.334;2022-09-01T08:09:50;9.65;;;8.60;;
27632;SDS011;15046;50.930;13.334;2022-09-01T08:12:16;9.90;;;8.30;;
27632;SDS011;15046;50.930;13.334;2022-09-01T08:14:42;9.55;;;7.72;;
27632;SDS011;15046;50.930;13.334;2022-09-01T08:17:08;11.32;;;7.50;;
27632;SDS011;15046;50.930;13.334;2022-09-01T08:19:34;10.57;;;8.15;;
27632;SDS011;15046;50.930;13.334;2022-09-01T08:22:00;10.85;;;7.28;;
27632;SDS011;15046;50.930;13.334;2022-09-01T08:24:26;8.93;;;6.43;;
27632;SDS011;15046;50.930;13.334;2022-09-01T08:26:52;11.73;;;6.20;;
27632;SDS011;15046;50.930;13.334;2022-09-01T08:29:18;8.25;;;5.95;;
27632;SDS011;15046;50.930;13.334;2022-09-01T08:31:45;11.07;;;5.60;;
27632;SDS011;15046;50.930;13.334;2022-09-01T08:34:11;9.98;;;5.90;;
27632;SDS011;15046;50.930;13.334;2022-09-01T08:36:38;9.15;;;4.80;;
27632;SDS011;15046;50.930;13.334;2022-09-01T08:39:03;7.93;;;5.40;;
27632;SDS011;15046;50.930;13.334;2022-09-01T08:41:43;8.43;;;5.22;;
27632;SDS011;15046;50.930;13.334;2022-09-01T08:47:09;13.77;;;5.32;;
27632;SDS011;15046;50.930;13.334;2022-09-01T08:49:38;9.45;;;5.35;;
27632;SDS011;15046;50.930;13.334;2022-09-01T08:55:13;7.72;;;3.78;;
27632;SDS011;15046;50.930;13.334;2022-09-01T08:57:51;5.68;;;4.05;;
27632;SDS011;15046;50.930;13.334;2022-09-01T09:00:26;8.52;;;4.85;;
27632;SDS011;15046;50.930;13.334;2022-09-01T09:03:06;8.27;;;4.15;;
27632;SDS011;15046;50.930;13.334;2022-09-01T09:08:39;8.73;;;3.63;;
27632;SDS011;15046;50.930;13.334;2022-09-01T09:16:25;6.47;;;3.42;;
27632;SDS011;15046;50.930;13.334;2022-09-01T09:19:02;9.23;;;3.70;;
27632;SDS011;15046;50.930;13.334;2022-09-01T09:21:38;8.50;;;3.45;;
27632;SDS011;15046;50.930;13.334;2022-09-01T09:24:26;8.07;;;3.60;;
27632;SDS011;15046;50.930;13.334;2022-09-01T09:27:11;7.63;;;3.17;;
27632;SDS011;15046;50.930;13.334;2022-09-01T09:29:56;6.10;;;2.80;;
27632;SDS011;15046;50.930;13.334;2022-09-01T09:32:46;7.72;;;3.50;;
27632;SDS011;15046;50.930;13.334;2022-09-01T09:35:20;5.90;;;3.05;;
27632;SDS011;15046;50.930;13.334;2022-09-01T09:37:49;5.78;;;2.75;;
27632;SDS011;15046;50.930;13.334;2022-09-01T09:40:16;8.40;;;2.90;;
27632;SDS011;15046;50.930;13.334;2022-09-01T09:45:26;7.30;;;3.05;;
27632;SDS011;15046;50.930;13.334;2022-09-01T09:48:31;7.97;;;2.67;;
27632;SDS011;15046;50.930;13.334;2022-09-01T09:53:53;4.97;;;2.30;;
27632;SDS011;15046;50.930;13.334;2022-09-01T09:57:00;5.00;;;1.80;;
27632;SDS011;15046;50.930;13.334;2022-09-01T09:59:31;6.45;;;2.20;;
27632;SDS011;15046;50.930;13.334;2022-09-01T10:02:16;6.22;;;1.90;;
27632;SDS011;15046;50.930;13.334;2022-09-01T10:04:44;9.80;;;2.13;;
27632;SDS011;15046;50.930;13.334;2022-09-01T10:07:30;5.43;;;1.75;;
27632;SDS011;15046;50.930;13.334;2022-09-01T10:13:38;4.63;;;1.85;;
27632;SDS011;15046;50.930;13.334;2022-09-01T10:16:01;6.57;;;1.77;;
27632;SDS011;15046;50.930;13.334;2022-09-01T10:18:37;4.78;;;2.13;;
27632;SDS011;15046;50.930;13.334;2022-09-01T10:21:10;9.95;;;2.10;;
27632;SDS011;15046;50.930;13.334;2022-09-01T10:23:39;7.22;;;2.60;;
27632;SDS011;15046;50.930;13.334;2022-09-01T10:28:36;5.88;;;2.05;;
27632;SDS011;15046;50.930;13.334;2022-09-01T10:31:12;4.65;;;1.85;;
27632;SDS011;15046;50.930;13.334;2022-09-01T10:33:39;5.22;;;1.42;;
27632;SDS011;15046;50.930;13.334;2022-09-01T10:36:05;4.95;;;1.92;;
27632;SDS011;15046;50.930;13.334;2022-09-01T10:38:32;4.10;;;1.33;;
27632;SDS011;15046;50.930;13.334;2022-09-01T10:40:58;5.80;;;1.60;;
27632;SDS011;15046;50.930;13.334;2022-09-01T10:48:44;4.93;;;1.73;;
27632;SDS011;15046;50.930;13.334;2022-09-01T10:53:58;4.80;;;1.65;;
27632;SDS011;15046;50.930;13.334;2022-09-01T10:59:27;5.47;;;1.60;;
27632;SDS011;15046;50.930;13.334;2022-09-01T11:04:20;3.85;;;1.20;;
27632;SDS011;15046;50.930;13.334;2022-09-01T11:06:54;4.85;;;1.10;;
27632;SDS011;15046;50.930;13.334;2022-09-01T11:09:30;3.17;;;1.20;;
27632;SDS011;15046;50.930;13.334;2022-09-01T11:14:53;5.95;;;1.50;;
27632;SDS011;15046;50.930;13.334;2022-09-01T11:23:20;6.47;;;1.40;;
27632;SDS011;15046;50.930;13.334;2022-09-01T11:36:00;3.65;;;1.40;;
27632;SDS011;15046;50.930;13.334;2022-09-01T11:38:31;4.53;;;1.58;;
27632;SDS011;15046;50.930;13.334;2022-09-01T11:41:07;8.38;;;1.52;;
27632;SDS011;15046;50.930;13.334;2022-09-01T11:43:33;5.15;;;1.38;;
27632;SDS011;15046;50.930;13.334;2022-09-01T11:46:23;5.28;;;1.45;;
27632;SDS011;15046;50.930;13.334;2022-09-01T11:48:50;4.13;;;1.20;;
27632;SDS011;15046;50.930;13.334;2022-09-01T11:51:16;5.28;;;1.20;;
27632;SDS011;15046;50.930;13.334;2022-09-01T11:53:42;5.78;;;1.58;;
27632;SDS011;15046;50.930;13.334;2022-09-01T11:56:26;5.53;;;1.75;;
27632;SDS011;15046;50.930;13.334;2022-09-01T11:58:53;2.80;;;1.40;;
27632;SDS011;15046;50.930;13.334;2022-09-01T12:01:22;3.70;;;1.30;;
27632;SDS011;15046;50.930;13.334;2022-09-01T12:03:55;4.40;;;1.42;;
27632;SDS011;15046;50.930;13.334;2022-09-01T12:06:26;3.33;;;1.00;;
27632;SDS011;15046;50.930;13.334;2022-09-01T12:09:01;3.45;;;0.90;;
27632;SDS011;15046;50.930;13.334;2022-09-01T12:11:30;3.45;;;1.10;;
27632;SDS011;15046;50.930;13.334;2022-09-01T12:13:59;4.07;;;1.15;;
27632;SDS011;15046;50.930;13.334;2022-09-01T12:16:26;2.65;;;0.75;;
27632;SDS011;15046;50.930;13.334;2022-09-01T12:18:54;3.60;;;0.80;;
27632;SDS011;15046;50.930;13.334;2022-09-01T12:21:27;2.38;;;0.80;;
27632;SDS011;15046;50.930;13.334;2022-09-01T12:24:09;2.63;;;1.00;;
27632;SDS011;15046;50.930;13.334;2022-09-01T12:26:35;3.60;;;1.10;;
27632;SDS011;15046;50.930;13.334;2022-09-01T12:29:02;2.03;;;0.90;;
27632;SDS011;15046;50.930;13.334;2022-09-01T12:31:31;2.40;;;1.40;;
27632;SDS011;15046;50.930;13.334;2022-09-01T12:33:57;3.78;;;1.25;;
27632;SDS011;15046;50.930;13.334;2022-09-01T12:36:31;4.17;;;1.40;;
27632;SDS011;15046;50.930;13.334;2022-09-01T12:41:42;3.45;;;1.13;;
27632;SDS011;15046;50.930;13.334;2022-09-01T12:46:54;3.50;;;1.40;;
27632;SDS011;15046;50.930;13.334;2022-09-01T12:49:22;4.60;;;1.17;;
27632;SDS011;15046;50.930;13.334;2022-09-01T12:54:43;3.42;;;1.08;;
27632;SDS011;15046;50.930;13.334;2022-09-01T12:57:31;2.22;;;1.08;;
27632;SDS011;15046;50.930;13.334;2022-09-01T13:00:13;2.75;;;1.17;;
27632;SDS011;15046;50.930;13.334;2022-09-01T13:02:46;3.65;;;1.00;;
27632;SDS011;15046;50.930;13.334;2022-09-01T13:05:41;5.28;;;1.30;;
27632;SDS011;15046;50.930;13.334;2022-09-01T13:08:32;3.30;;;1.27;;
27632;SDS011;15046;50.930;13.334;2022-09-01T13:11:06;2.15;;;1.08;;
27632;SDS011;15046;50.930;13.334;2022-09-01T13:13:34;2.25;;;1.10;;
27632;SDS011;15046;50.930;13.334;2022-09-01T13:16:00;2.20;;;1.10;;
27632;SDS011;15046;50.930;13.334;2022-09-01T13:18:36;4.38;;;1.20;;
27632;SDS011;15046;50.930;13.334;2022-09-01T13:21:04;6.10;;;1.15;;
27632;SDS011;15046;50.930;13.334;2022-09-01T13:23:30;3.33;;;1.00;;
27632;SDS011;15046;50.930;13.334;2022-09-01T13:25:56;4.75;;;0.93;;
27632;SDS011;15046;50.930;13.334;2022-09-01T13:28:23;3.70;;;1.27;;
27632;SDS011;15046;50.930;13.334;2022-09-01T13:31:00;2.88;;;1.10;;
27632;SDS011;15046;50.930;13.334;2022-09-01T13:33:34;3.42;;;1.48;;
27632;SDS011;15046;50.930;13.334;2022-09-01T13:36:01;3.40;;;1.27;;
27632;SDS011;15046;50.930;13.334;2022-09-01T13:38:28;2.97;;;1.10;;
27632;SDS011;15046;50.930;13.334;2022-09-01T13:40:56;3.30;;;1.23;;
27632;SDS011;15046;50.930;13.334;2022-09-01T13:43:24;4.45;;;1.40;;
27632;SDS011;15046;50.930;13.334;2022-09-01T13:45:51;3.58;;;1.23;;
27632;SDS011;15046;50.930;13.334;2022-09-01T13:48:18;3.97;;;1.30;;
27632;SDS011;15046;50.930;13.334;2022-09-01T13:50:45;6.80;;;1.58;;
27632;SDS011;15046;50.930;13.334;2022-09-01T13:53:17;3.13;;;1.30;;
27632;SDS011;15046;50.930;13.334;2022-09-01T13:55:43;2.90;;;1.30;;
27632;SDS011;15046;50.930;13.334;2022-09-01T13:58:09;4.53;;;1.20;;
27632;SDS011;15046;50.930;13.334;2022-09-01T14:00:37;5.00;;;1.58;;
27632;SDS011;15046;50.930;13.334;2022-09-01T14:03:07;7.15;;;1.38;;
27632;SDS011;15046;50.930;13.334;2022-09-01T14:05:39;4.85;;;1.40;;
27632;SDS011;15046;50.930;13.334;2022-09-01T14:08:07;4.00;;;1.42;;
27632;SDS011;15046;50.930;13.334;2022-09-01T14:10:36;7.53;;;1.45;;
27632;SDS011;15046;50.930;13.334;2022-09-01T14:13:05;3.50;;;1.38;;
27632;SDS011;15046;50.930;13.334;2022-09-01T14:15:32;3.65;;;1.20;;
27632;SDS011;15046;50.930;13.334;2022-09-01T14:17:58;8.23;;;1.20;;
27632;SDS011;15046;50.930;13.334;2022-09-01T14:20:29;2.97;;;1.27;;
27632;SDS011;15046;50.930;13.334;2022-09-01T14:23:00;2.92;;;1.35;;
27632;SDS011;15046;50.930;13.334;2022-09-01T14:25:28;3.00;;;1.17;;
27632;SDS011;15046;50.930;13.334;2022-09-01T14:27:55;4.93;;;1.48;;
27632;SDS011;15046;50.930;13.334;2022-09-01T14:30:22;4.18;;;0.95;;
27632;SDS011;15046;50.930;13.334;2022-09-01T14:32:50;5.07;;;1.40;;
27632;SDS011;15046;50.930;13.334;2022-09-01T14:35:17;3.42;;;1.25;;
27632;SDS011;15046;50.930;13.334;2022-09-01T14:37:45;4.47;;;1.60;;
27632;SDS011;15046;50.930;13.334;2022-09-01T14:40:12;3.75;;;1.20;;
27632;SDS011;15046;50.930;13.334;2022-09-01T14:42:43;3.33;;;1.20;;
27632;SDS011;15046;50.930;13.334;2022-09-01T14:45:16;2.33;;;1.00;;
27632;SDS011;15046;50.930;13.334;2022-09-01T14:47:47;3.85;;;1.10;;
27632;SDS011;15046;50.930;13.334;2022-09-01T14:50:15;2.65;;;1.00;;
27632;SDS011;15046;50.930;13.334;2022-09-01T14:52:43;4.30;;;1.55;;
27632;SDS011;15046;50.930;13.334;2022-09-01T14:55:09;5.80;;;1.40;;
27632;SDS011;15046;50.930;13.334;2022-09-01T14:57:35;3.60;;;1.10;;
27632;SDS011;15046;50.930;13.334;2022-09-01T15:00:01;3.72;;;1.33;;
27632;SDS011;15046;50.930;13.334;2022-09-01T15:02:29;2.60;;;0.90;;
27632;SDS011;15046;50.930;13.334;2022-09-01T15:04:57;2.90;;;1.10;;
27632;SDS011;15046;50.930;13.334;2022-09-01T15:07:23;3.00;;;1.00;;
27632;SDS011;15046;50.930;13.334;2022-09-01T15:09:49;4.13;;;1.15;;
27632;SDS011;15046;50.930;13.334;2022-09-01T15:12:14;2.83;;;1.10;;
27632;SDS011;15046;50.930;13.334;2022-09-01T15:14:40;3.65;;;1.35;;
27632;SDS011;15046;50.930;13.334;2022-09-01T15:17:06;2.83;;;0.90;;
27632;SDS011;15046;50.930;13.334;2022-09-01T15:19:33;3.33;;;1.50;;
27632;SDS011;15046;50.930;13.334;2022-09-01T15:21:59;3.70;;;1.13;;
27632;SDS011;15046;50.930;13.334;2022-09-01T15:24:24;4.38;;;1.08;;
27632;SDS011;15046;50.930;13.334;2022-09-01T15:26:50;4.50;;;1.10;;
27632;SDS011;15046;50.930;13.334;2022-09-01T15:29:16;2.92;;;1.10;;
27632;SDS011;15046;50.930;13.334;2022-09-01T15:31:42;2.80;;;1.02;;
27632;SDS011;15046;50.930;13.334;2022-09-01T15:34:09;2.83;;;1.10;;
27632;SDS011;15046;50.930;13.334;2022-09-01T15:36:37;3.90;;;1.25;;
27632;SDS011;15046;50.930;13.334;2022-09-01T15:39:05;2.35;;;1.00;;
27632;SDS011;15046;50.930;13.334;2022-09-01T15:41:32;4.90;;;1.23;;
27632;SDS011;15046;50.930;13.334;2022-09-01T15:44:00;4.82;;;1.58;;
27632;SDS011;15046;50.930;13.334;2022-09-01T15:46:29;3.60;;;1.42;;
27632;SDS011;15046;50.930;13.334;2022-09-01T15:48:59;5.00;;;1.25;;
27632;SDS011;15046;50.930;13.334;2022-09-01T15:51:30;4.28;;;1.13;;
27632;SDS011;15046;50.930;13.334;2022-09-01T15:54:00;4.97;;;1.30;;
27632;SDS011;15046;50.930;13.334;2022-09-01T15:56:32;4.13;;;1.20;;
27632;SDS011;15046;50.930;13.334;2022-09-01T15:59:03;2.90;;;0.98;;
27632;SDS011;15046;50.930;13.334;2022-09-01T16:01:34;2.45;;;1.13;;
27632;SDS011;15046;50.930;13.334;2022-09-01T16:04:09;2.20;;;0.90;;
27632;SDS011;15046;50.930;13.334;2022-09-01T16:06:39;3.58;;;0.98;;
27632;SDS011;15046;50.930;13.334;2022-09-01T16:09:06;2.25;;;1.23;;
27632;SDS011;15046;50.930;13.334;2022-09-01T16:11:33;2.42;;;1.00;;
27632;SDS011;15046;50.930;13.334;2022-09-01T16:14:02;2.10;;;0.98;;
27632;SDS011;15046;50.930;13.334;2022-09-01T16:16:58;1.98;;;1.08;;
27632;SDS011;15046;50.930;13.334;2022-09-01T16:19:37;2.08;;;0.90;;